createdAt,value
2023-01-23T00:00:55.389Z,102504.81
2023-01-23T00:03:21.930Z,102502.94
2023-01-23T00:06:10.643Z,102505.22
2023-01-23T00:08:37.977Z,102504.69
2023-01-23T00:11:06.977Z,102508.06
2023-01-23T00:13:35.139Z,102508.03
2023-01-23T00:16:22.902Z,102503.22
2023-01-23T00:18:50.264Z,102506.59
2023-01-23T00:21:20.239Z,102509.88
2023-01-23T00:23:53.938Z,102501.59
2023-01-23T00:26:26.678Z,102502.44
2023-01-23T00:28:54.073Z,102506.94
2023-01-23T00:31:25.212Z,102509.84
2023-01-23T00:34:03.697Z,102510.59
2023-01-23T00:36:34.304Z,102507.00
2023-01-23T00:39:01.100Z,102504.47
2023-01-23T00:41:27.789Z,102510.69
2023-01-23T00:43:54.410Z,102518.03
2023-01-23T00:46:21.526Z,102521.59
2023-01-23T00:48:48.891Z,102522.22
2023-01-23T00:51:15.792Z,102522.13
2023-01-23T00:53:42.980Z,102525.84
2023-01-23T00:56:09.539Z,102525.13
2023-01-23T00:58:36.423Z,102529.69
2023-01-23T01:01:03.059Z,102529.56
2023-01-23T01:03:29.598Z,102534.03
2023-01-23T01:05:56.315Z,102535.94
2023-01-23T01:08:22.840Z,102539.66
2023-01-23T01:10:50.212Z,102542.03
2023-01-23T01:13:21.141Z,102547.03
2023-01-23T01:15:48.711Z,102553.88
2023-01-23T01:18:15.678Z,102557.91
2023-01-23T01:20:43.085Z,102559.78
2023-01-23T01:23:10.744Z,102565.53
2023-01-23T01:25:37.468Z,102561.47
2023-01-23T01:28:04.615Z,102572.91
2023-01-23T01:30:31.151Z,102564.53
2023-01-23T01:32:57.740Z,102570.13
2023-01-23T01:35:24.700Z,102569.44
2023-01-23T01:37:51.541Z,102579.06
2023-01-23T01:40:24.636Z,102574.00
2023-01-23T01:42:59.428Z,102574.38
2023-01-23T01:46:04.232Z,102580.00
2023-01-23T01:48:36.591Z,102579.13
2023-01-23T01:51:24.715Z,102588.78
2023-01-23T01:54:04.418Z,102583.59
2023-01-23T01:56:47.509Z,102581.28
2023-01-23T01:59:15.163Z,102583.63
2023-01-23T02:01:44.229Z,102589.63
2023-01-23T02:04:11.190Z,102597.63
2023-01-23T02:06:38.265Z,102588.09
2023-01-23T02:09:11.359Z,102593.09
2023-01-23T02:11:37.920Z,102599.13
2023-01-23T02:14:05.030Z,102603.47
2023-01-23T02:16:40.212Z,102600.19
2023-01-23T02:19:19.541Z,102597.38
2023-01-23T02:21:49.939Z,102603.56
2023-01-23T02:24:34.568Z,102601.66
2023-01-23T02:27:03.086Z,102601.06
2023-01-23T02:29:44.879Z,102604.69
2023-01-23T02:32:12.129Z,102600.00
2023-01-23T02:34:38.728Z,102602.78
2023-01-23T02:37:06.929Z,102603.97
2023-01-23T02:39:33.578Z,102597.47
2023-01-23T02:42:01.444Z,102601.53
2023-01-23T02:44:40.742Z,102604.63
2023-01-23T02:47:12.047Z,102596.31
2023-01-23T02:49:40.651Z,102606.88
2023-01-23T02:52:09.615Z,102600.50
2023-01-23T02:54:36.767Z,102599.94
2023-01-23T02:57:03.428Z,102604.94
2023-01-23T02:59:49.353Z,102602.19
2023-01-23T03:02:16.028Z,102596.66
2023-01-23T03:04:42.677Z,102594.84
2023-01-23T03:07:09.203Z,102594.34
2023-01-23T03:09:35.894Z,102602.91
2023-01-23T03:12:02.796Z,102591.44
2023-01-23T03:14:30.053Z,102587.09
2023-01-23T03:16:56.707Z,102586.50
2023-01-23T03:19:29.438Z,102586.00
2023-01-23T03:21:56.597Z,102581.38
2023-01-23T03:24:23.436Z,102575.19
2023-01-23T03:26:51.125Z,102581.34
2023-01-23T03:29:40.939Z,102584.88
2023-01-23T03:32:08.373Z,102575.13
2023-01-23T03:34:35.380Z,102582.84
2023-01-23T03:37:03.367Z,102578.53
2023-01-23T03:39:50.784Z,102587.84
2023-01-23T03:42:18.586Z,102580.50
2023-01-23T03:44:46.948Z,102580.97
2023-01-23T03:47:13.648Z,102575.88
2023-01-23T03:49:40.258Z,102574.00
2023-01-23T03:52:07.470Z,102585.50
2023-01-23T03:54:34.640Z,102585.19
2023-01-23T03:57:01.537Z,102585.53
2023-01-23T03:59:46.517Z,102594.16
2023-01-23T04:02:13.853Z,102592.28
2023-01-23T04:04:40.431Z,102589.09
2023-01-23T04:07:08.966Z,102594.06
2023-01-23T04:09:37.248Z,102595.69
2023-01-23T04:12:04.572Z,102598.25
2023-01-23T04:14:37.332Z,102613.88
2023-01-23T04:17:05.957Z,102612.13
2023-01-23T04:19:32.560Z,102626.91
2023-01-23T04:21:59.089Z,102627.19
2023-01-23T04:24:26.484Z,102627.75
2023-01-23T04:26:53.705Z,102624.88
2023-01-23T04:29:20.372Z,102624.88
2023-01-23T04:31:47.427Z,102625.59
2023-01-23T04:34:14.581Z,102630.53
2023-01-23T04:36:42.413Z,102629.44
2023-01-23T04:39:09.019Z,102634.78
2023-01-23T04:41:37.421Z,102635.75
2023-01-23T04:44:22.800Z,102642.47
2023-01-23T04:47:10.117Z,102631.66
2023-01-23T04:49:37.044Z,102637.84
2023-01-23T04:52:04.587Z,102640.72
2023-01-23T04:54:35.412Z,102639.34
2023-01-23T04:57:02.053Z,102646.25
2023-01-23T04:59:29.827Z,102649.94
2023-01-23T05:01:56.603Z,102639.34
2023-01-23T05:04:24.169Z,102640.66
2023-01-23T05:06:50.786Z,102645.47
2023-01-23T05:09:17.694Z,102652.47
2023-01-23T05:11:50.015Z,102648.72
2023-01-23T05:14:17.752Z,102656.66
2023-01-23T05:16:46.654Z,102663.88
2023-01-23T05:19:15.852Z,102668.94
2023-01-23T05:21:43.024Z,102670.63
2023-01-23T05:24:16.817Z,102662.09
2023-01-23T05:26:44.421Z,102656.88
2023-01-23T05:29:11.003Z,102660.31
2023-01-23T05:31:46.332Z,102669.06
2023-01-23T05:34:33.048Z,102671.13
2023-01-23T05:37:02.959Z,102670.03
2023-01-23T05:39:32.991Z,102670.22
2023-01-23T05:42:00.383Z,102672.91
2023-01-23T05:45:02.454Z,102675.75
2023-01-23T05:47:37.001Z,102677.22
2023-01-23T05:50:07.921Z,102679.38
2023-01-23T05:52:36.377Z,102681.00
2023-01-23T05:55:03.823Z,102687.72
2023-01-23T05:57:31.783Z,102691.31
2023-01-23T06:00:17.608Z,102698.06
2023-01-23T06:03:04.227Z,102690.31
2023-01-23T06:05:48.966Z,102697.53
2023-01-23T06:08:18.376Z,102695.72
2023-01-23T06:10:44.951Z,102705.63
2023-01-23T06:13:11.896Z,102705.16
2023-01-23T06:15:38.658Z,102709.59
2023-01-23T06:18:10.307Z,102712.63
2023-01-23T06:20:36.816Z,102713.41
2023-01-23T06:23:03.502Z,102712.25
2023-01-23T06:25:30.335Z,102713.16
2023-01-23T06:27:59.129Z,102715.44
2023-01-23T06:30:28.503Z,102716.41
2023-01-23T06:32:55.846Z,102724.38
2023-01-23T06:35:30.156Z,102718.47
2023-01-23T06:37:56.696Z,102722.66
2023-01-23T06:40:23.961Z,102730.16
2023-01-23T06:43:11.607Z,102726.28
2023-01-23T06:45:38.419Z,102724.41
2023-01-23T06:48:05.166Z,102737.06
2023-01-23T06:50:31.794Z,102731.81
2023-01-23T06:52:58.338Z,102729.66
2023-01-23T06:55:24.881Z,102736.19
2023-01-23T06:57:51.966Z,102734.97
2023-01-23T07:00:19.436Z,102740.03
2023-01-23T07:02:46.614Z,102744.94
2023-01-23T07:05:13.232Z,102744.56
2023-01-23T07:07:43.352Z,102753.13
2023-01-23T07:10:10.645Z,102757.75
2023-01-23T07:12:38.120Z,102764.31
2023-01-23T07:15:07.084Z,102752.16
2023-01-23T07:17:38.373Z,102764.88
2023-01-23T07:20:05.824Z,102765.53
2023-01-23T07:22:36.389Z,102765.47
2023-01-23T07:25:02.995Z,102759.97
2023-01-23T07:27:29.882Z,102757.78
2023-01-23T07:29:56.419Z,102766.41
2023-01-23T07:32:22.938Z,102759.53
2023-01-23T07:34:49.520Z,102765.09
2023-01-23T07:37:16.033Z,102765.91
2023-01-23T07:39:43.031Z,102769.56
2023-01-23T07:42:10.130Z,102770.75
2023-01-23T07:44:40.933Z,102770.88
2023-01-23T07:47:07.521Z,102779.22
2023-01-23T07:49:33.987Z,102780.34
2023-01-23T07:52:00.906Z,102781.06
2023-01-23T07:54:27.975Z,102778.22
2023-01-23T07:56:54.573Z,102783.88
2023-01-23T07:59:21.090Z,102786.47
2023-01-23T08:01:49.392Z,102781.78
2023-01-23T08:04:15.922Z,102788.66
2023-01-23T08:06:42.599Z,102782.03
2023-01-23T08:09:09.440Z,102791.13
2023-01-23T08:11:36.019Z,102795.97
2023-01-23T08:14:02.601Z,102791.50
2023-01-23T08:16:29.188Z,102796.94
2023-01-23T08:18:56.042Z,102795.41
2023-01-23T08:21:22.583Z,102804.44
2023-01-23T08:23:49.178Z,102802.84
2023-01-23T08:26:17.819Z,102807.25
2023-01-23T08:28:45.868Z,102807.59
2023-01-23T08:31:13.406Z,102813.53
2023-01-23T08:33:40.349Z,102816.38
2023-01-23T08:36:10.918Z,102812.88
2023-01-23T08:38:38.103Z,102816.19
2023-01-23T08:41:05.271Z,102819.50
2023-01-23T08:43:32.809Z,102812.53
2023-01-23T08:46:00.077Z,102824.75
2023-01-23T08:48:28.651Z,102817.50
2023-01-23T08:51:01.183Z,102825.66
2023-01-23T08:53:28.582Z,102826.44
2023-01-23T08:56:08.268Z,102830.84
2023-01-23T08:58:35.826Z,102830.09
2023-01-23T09:01:02.440Z,102830.09
2023-01-23T09:03:29.055Z,102833.84
2023-01-23T09:05:55.592Z,102836.88
2023-01-23T09:08:22.105Z,102834.00
2023-01-23T09:10:48.609Z,102834.63
2023-01-23T09:13:15.826Z,102836.75
2023-01-23T09:15:42.648Z,102829.25
2023-01-23T09:18:09.155Z,102838.41
2023-01-23T09:20:38.112Z,102836.16
2023-01-23T09:23:04.644Z,102838.06
2023-01-23T09:25:31.524Z,102832.56
2023-01-23T09:27:58.117Z,102836.84
2023-01-23T09:30:24.700Z,102836.28
2023-01-23T09:32:51.258Z,102833.22
2023-01-23T09:35:17.931Z,102835.13
2023-01-23T09:38:04.185Z,102845.00
2023-01-23T09:40:35.438Z,102842.66
2023-01-23T09:43:18.478Z,102847.78
2023-01-23T09:45:58.962Z,102834.53
2023-01-23T09:48:37.809Z,102851.22
2023-01-23T09:51:13.122Z,102854.09
2023-01-23T09:53:40.661Z,102852.19
2023-01-23T09:56:28.444Z,102849.44
2023-01-23T09:59:14.696Z,102847.47
2023-01-23T10:01:41.530Z,102851.81
2023-01-23T10:04:11.495Z,102856.19
2023-01-23T10:06:58.508Z,102860.84
2023-01-23T10:09:47.203Z,102860.28
2023-01-23T10:12:32.660Z,102859.25
2023-01-23T10:15:19.514Z,102863.97
2023-01-23T10:17:58.417Z,102870.78
2023-01-23T10:20:44.446Z,102860.50
2023-01-23T10:23:38.101Z,102867.59
2023-01-23T10:26:04.696Z,102873.34
2023-01-23T10:28:43.505Z,102865.22
2023-01-23T10:31:28.883Z,102858.34
2023-01-23T10:34:18.127Z,102851.13
2023-01-23T10:37:05.174Z,102850.06
2023-01-23T10:39:43.425Z,102855.13
2023-01-23T10:42:13.476Z,102853.63
2023-01-23T10:44:40.099Z,102856.44
2023-01-23T10:47:40.600Z,102849.44
2023-01-23T10:50:10.158Z,102852.16
2023-01-23T10:52:39.691Z,102850.78
2023-01-23T10:55:26.917Z,102851.22
2023-01-23T10:57:55.676Z,102842.97
2023-01-23T11:00:27.745Z,102847.41
2023-01-23T11:02:54.465Z,102854.66
2023-01-23T11:05:51.118Z,102838.16
2023-01-23T11:08:45.908Z,102843.97
2023-01-23T11:11:15.656Z,102839.28
2023-01-23T11:13:47.022Z,102838.50
2023-01-23T11:16:19.880Z,102841.63
2023-01-23T11:19:25.156Z,102838.84
2023-01-23T11:21:56.267Z,102850.03
2023-01-23T11:24:38.515Z,102850.59
2023-01-23T11:27:17.048Z,102843.88
2023-01-23T11:30:03.586Z,102843.97
2023-01-23T11:32:35.162Z,102844.88
2023-01-23T11:35:20.789Z,102840.88
2023-01-23T11:37:47.767Z,102843.31
2023-01-23T11:40:18.711Z,102840.88
2023-01-23T11:42:46.113Z,102844.94
2023-01-23T11:45:33.352Z,102840.28
2023-01-23T11:48:14.238Z,102842.16
2023-01-23T11:50:55.917Z,102837.50
2023-01-23T11:53:42.369Z,102844.56
2023-01-23T11:56:40.228Z,102841.31
2023-01-23T11:59:29.708Z,102838.06
2023-01-23T12:02:27.052Z,102834.88
2023-01-23T12:05:08.553Z,102835.81
2023-01-23T12:08:02.845Z,102843.25
2023-01-23T12:10:45.811Z,102838.63
2023-01-23T12:13:30.828Z,102843.91
2023-01-23T12:16:02.509Z,102843.91
2023-01-23T12:18:47.128Z,102846.25
2023-01-23T12:21:30.524Z,102844.03
2023-01-23T12:24:08.852Z,102844.16
2023-01-23T12:26:45.175Z,102846.97
2023-01-23T12:29:49.883Z,102844.44
2023-01-23T12:32:41.330Z,102847.00
2023-01-23T12:35:24.678Z,102838.59
2023-01-23T12:37:58.954Z,102845.69
2023-01-23T12:40:38.741Z,102839.63
2023-01-23T12:43:14.537Z,102849.66
2023-01-23T12:45:49.059Z,102854.28
2023-01-23T12:48:47.590Z,102858.91
2023-01-23T12:51:24.127Z,102849.25
2023-01-23T12:53:57.546Z,102852.22
2023-01-23T12:56:27.817Z,102856.47
2023-01-23T12:59:25.671Z,102856.34
2023-01-23T13:02:14.151Z,102856.53
2023-01-23T13:04:55.621Z,102852.69
2023-01-23T13:07:38.072Z,102846.47
2023-01-23T13:10:49.145Z,102865.22
2023-01-23T13:13:18.273Z,102866.66
2023-01-23T13:16:04.511Z,102863.91
2023-01-23T13:18:51.047Z,102855.28
2023-01-23T13:21:36.111Z,102858.56
2023-01-23T13:24:41.041Z,102868.34
2023-01-23T13:27:34.878Z,102866.78
2023-01-23T13:30:02.375Z,102860.19
2023-01-23T13:32:29.794Z,102861.56
2023-01-23T13:34:56.427Z,102870.16
2023-01-23T13:37:28.972Z,102872.84
2023-01-23T13:40:16.860Z,102870.75
2023-01-23T13:42:43.788Z,102873.56
2023-01-23T13:45:16.528Z,102875.69
2023-01-23T14:22:10.883Z,102883.69
2023-01-23T14:24:50.071Z,102894.59
2023-01-23T14:27:52.216Z,102893.22
2023-01-23T14:30:31.120Z,102894.50
2023-01-23T14:32:59.199Z,102887.56
2023-01-23T14:35:31.306Z,102886.38
2023-01-23T14:38:00.197Z,102888.22
2023-01-23T14:40:33.269Z,102879.91
2023-01-23T14:43:07.841Z,102872.38
2023-01-23T14:45:37.123Z,102890.00
2023-01-23T14:48:07.572Z,102884.66
2023-01-23T14:50:35.011Z,102891.19
2023-01-23T14:53:07.569Z,102884.66
2023-01-23T14:55:37.796Z,102891.88
2023-01-23T14:58:05.014Z,102887.09
2023-01-23T15:00:32.189Z,102881.50
2023-01-23T15:02:58.766Z,102874.28
2023-01-23T15:05:27.426Z,102879.00
2023-01-23T15:08:01.282Z,102882.47
2023-01-23T15:10:36.801Z,102875.94
2023-01-23T15:13:09.728Z,102879.50
2023-01-23T15:15:36.537Z,102877.28
2023-01-23T15:18:15.258Z,102884.56
2023-01-23T15:20:41.804Z,102870.81
2023-01-23T15:23:38.696Z,102869.38
2023-01-23T15:26:11.672Z,102876.84
2023-01-23T15:28:41.673Z,102869.97
2023-01-23T15:31:31.632Z,102863.06
2023-01-23T15:34:16.599Z,102870.16
2023-01-23T15:36:51.142Z,102864.75
2023-01-23T15:39:29.626Z,102871.44
2023-01-23T15:42:02.308Z,102869.44
2023-01-23T15:44:31.056Z,102871.44
2023-01-23T15:47:01.218Z,102872.59
2023-01-23T15:49:28.751Z,102872.72
2023-01-23T15:51:57.297Z,102861.16
2023-01-23T15:54:28.434Z,102855.56
2023-01-23T15:57:06.590Z,102863.72
2023-01-23T15:59:34.660Z,102864.09
2023-01-23T16:02:01.178Z,102867.84
2023-01-23T16:04:27.697Z,102861.38
2023-01-23T16:06:54.415Z,102855.28
2023-01-23T16:09:30.426Z,102853.03
2023-01-23T16:11:59.062Z,102849.41
2023-01-23T16:14:25.629Z,102845.56
2023-01-23T16:16:52.156Z,102849.56
2023-01-23T16:19:18.759Z,102852.97
2023-01-23T16:21:47.708Z,102854.91
2023-01-23T16:24:23.961Z,102859.81
2023-01-23T16:26:51.456Z,102853.63
2023-01-23T16:29:28.908Z,102850.06
2023-01-23T16:31:57.175Z,102860.94
2023-01-23T16:34:23.763Z,102852.34
2023-01-23T16:36:52.601Z,102852.00
2023-01-23T16:39:22.801Z,102857.66
2023-01-23T16:41:49.777Z,102865.13
2023-01-23T16:44:18.756Z,102858.91
2023-01-23T16:46:45.901Z,102864.94
2023-01-23T16:49:14.006Z,102867.94
2023-01-23T16:51:43.635Z,102868.81
2023-01-23T16:54:18.659Z,102875.75
2023-01-23T16:56:48.069Z,102876.34
2023-01-23T16:59:19.117Z,102873.13
2023-01-23T17:01:49.371Z,102879.56
2023-01-23T17:04:19.584Z,102872.25
2023-01-23T17:06:46.859Z,102879.00
2023-01-23T17:09:14.300Z,102881.63
2023-01-23T17:11:55.577Z,102881.97
2023-01-23T17:14:28.204Z,102894.22
2023-01-23T17:17:02.027Z,102899.00
2023-01-23T17:19:31.726Z,102897.66
2023-01-23T17:22:00.289Z,102898.63
2023-01-23T17:24:27.187Z,102905.63
2023-01-23T17:26:53.688Z,102902.09
2023-01-23T17:29:20.723Z,102902.84
2023-01-23T17:31:48.017Z,102909.50
2023-01-23T17:34:24.067Z,102911.94
2023-01-23T17:36:52.765Z,102914.78
2023-01-23T17:39:20.647Z,102913.00
2023-01-23T17:41:48.130Z,102913.69
2023-01-23T17:44:14.640Z,102915.78
2023-01-23T17:46:41.325Z,102924.09
2023-01-23T17:49:29.071Z,102909.47
2023-01-23T17:51:57.463Z,102911.81
2023-01-23T17:54:24.345Z,102915.53
2023-01-23T17:56:50.855Z,102913.34
2023-01-23T17:59:17.393Z,102915.88
2023-01-23T18:01:44.293Z,102928.16
2023-01-23T18:04:19.331Z,102929.09
2023-01-23T18:06:46.996Z,102928.53
2023-01-23T18:09:14.118Z,102922.63
2023-01-23T18:11:44.136Z,102928.88
2023-01-23T18:14:33.046Z,102926.97
2023-01-23T18:16:59.930Z,102925.88
2023-01-23T18:19:27.543Z,102930.59
2023-01-23T18:21:56.312Z,102938.28
2023-01-23T18:24:29.923Z,102927.09
2023-01-23T18:27:10.851Z,102943.22
2023-01-23T18:30:14.996Z,102935.75
2023-01-23T18:32:56.849Z,102946.34
2023-01-23T18:35:23.724Z,102951.84
2023-01-23T18:38:07.362Z,102952.25
2023-01-23T18:41:05.796Z,102957.22
2023-01-23T18:43:48.676Z,102958.94
2023-01-23T18:46:17.652Z,102954.28
2023-01-23T18:48:46.430Z,102955.91
2023-01-23T18:51:45.331Z,102960.19
2023-01-23T18:54:42.569Z,102957.16
2023-01-23T18:57:36.775Z,102957.56
2023-01-23T19:00:39.275Z,102963.97
2023-01-23T19:03:14.653Z,102963.78
2023-01-23T19:05:42.395Z,102963.59
2023-01-23T19:08:28.120Z,102957.75
2023-01-23T19:11:00.226Z,102955.00
2023-01-23T19:13:43.699Z,102952.97
2023-01-23T19:16:31.776Z,102956.03
2023-01-23T19:19:15.757Z,102957.41
2023-01-23T19:21:46.241Z,102960.91
2023-01-23T19:24:15.237Z,102959.34
2023-01-23T19:26:42.007Z,102962.00
2023-01-23T19:29:21.028Z,102964.75
2023-01-23T19:32:06.006Z,102961.31
2023-01-23T19:34:34.007Z,102971.50
2023-01-23T19:37:00.531Z,102973.06
2023-01-23T19:39:27.318Z,102977.56
2023-01-23T19:41:54.267Z,102974.00
2023-01-23T19:44:23.940Z,102969.94
2023-01-23T19:46:51.373Z,102973.13
2023-01-23T19:49:18.408Z,102973.13
2023-01-23T19:51:45.926Z,102964.13
2023-01-23T19:54:14.275Z,102972.88
2023-01-23T19:56:41.032Z,102978.06
2023-01-23T19:59:07.743Z,102982.41
2023-01-23T20:01:38.593Z,102975.13
2023-01-23T20:04:06.932Z,102981.66
2023-01-23T20:06:34.329Z,102970.03
2023-01-23T20:09:00.981Z,102977.09
2023-01-23T20:11:27.519Z,102973.56
2023-01-23T20:13:54.523Z,102986.94
2023-01-23T20:16:24.948Z,102980.19
2023-01-23T20:18:53.968Z,102989.63
2023-01-23T20:21:23.560Z,102997.13
2023-01-23T20:23:50.991Z,102986.88
2023-01-23T20:26:19.416Z,102988.16
2023-01-23T20:28:50.996Z,102983.81
2023-01-23T20:31:17.569Z,102980.44
2023-01-23T20:33:44.484Z,102983.50
2023-01-23T20:36:13.456Z,102975.44
2023-01-23T20:38:40.635Z,102975.94
2023-01-23T20:41:15.202Z,102977.13
2023-01-23T20:43:45.099Z,102975.22
2023-01-23T20:46:13.168Z,102983.63
2023-01-23T20:48:43.757Z,102972.97
2023-01-23T20:51:10.770Z,102979.44
2023-01-23T20:53:39.778Z,102982.59
2023-01-23T20:56:15.264Z,102978.94
2023-01-23T20:59:06.423Z,102980.56
2023-01-23T21:01:57.474Z,102973.31
2023-01-23T21:04:26.925Z,102985.63
2023-01-23T21:06:53.717Z,102975.78
2023-01-23T21:09:20.795Z,102983.13
2023-01-23T21:11:49.737Z,102979.56
2023-01-23T21:14:16.927Z,102977.56
2023-01-23T21:16:43.500Z,102987.16
2023-01-23T21:19:10.007Z,102983.09
2023-01-23T21:21:36.665Z,102982.41
2023-01-23T21:24:03.285Z,102979.69
2023-01-23T21:26:30.166Z,102982.00
2023-01-23T21:28:57.736Z,102984.03
2023-01-23T21:31:27.319Z,102988.06
2023-01-23T21:33:54.339Z,102984.97
2023-01-23T21:36:23.670Z,102982.84
2023-01-23T21:39:02.364Z,102987.38
2023-01-23T21:41:29.066Z,102986.34
2023-01-23T21:43:55.615Z,102992.41
2023-01-23T21:46:22.636Z,102983.63
2023-01-23T21:48:49.235Z,102983.31
2023-01-23T21:51:19.929Z,102985.19
2023-01-23T21:53:48.996Z,102983.91
2023-01-23T21:56:18.432Z,102984.72
2023-01-23T21:58:47.360Z,102994.94
2023-01-23T22:01:36.055Z,102998.00
2023-01-23T22:04:11.649Z,102998.38
2023-01-23T22:06:40.851Z,103001.44
2023-01-23T22:09:08.363Z,103000.09
2023-01-23T22:11:35.642Z,103004.88
2023-01-23T22:14:02.620Z,103000.31
2023-01-23T22:16:46.865Z,103003.59
2023-01-23T22:19:15.502Z,103014.09
2023-01-23T22:21:43.549Z,103015.97
2023-01-23T22:24:10.145Z,103015.63
2023-01-23T22:26:37.169Z,103016.63
2023-01-23T22:29:03.667Z,103017.72
2023-01-23T22:31:30.470Z,103015.31
2023-01-23T22:33:57.097Z,103017.50
2023-01-23T22:36:23.972Z,103014.81
2023-01-23T22:38:54.806Z,103017.03
2023-01-23T22:41:21.777Z,103017.22
2023-01-23T22:43:54.228Z,103018.25
2023-01-23T22:46:21.522Z,103014.78
2023-01-23T22:48:48.169Z,103020.00
2023-01-23T22:51:23.192Z,103019.03
2023-01-23T22:53:51.455Z,103019.28
2023-01-23T22:56:18.638Z,103020.88
2023-01-23T22:58:49.372Z,103023.09
2023-01-23T23:01:16.551Z,103018.31
2023-01-23T23:03:44.045Z,103013.56
2023-01-23T23:06:13.850Z,103020.47
2023-01-23T23:08:40.902Z,103020.59
2023-01-23T23:11:10.304Z,103027.97
2023-01-23T23:13:38.923Z,103028.84
2023-01-23T23:16:08.670Z,103024.31
2023-01-23T23:18:37.459Z,103024.72
2023-01-23T23:21:08.105Z,103029.09
2023-01-23T23:23:35.079Z,103026.97
2023-01-23T23:26:02.147Z,103021.13
2023-01-23T23:28:29.152Z,103021.44
2023-01-23T23:30:55.934Z,103013.72
2023-01-23T23:33:22.507Z,103007.31
2023-01-23T23:35:49.312Z,103006.28
2023-01-23T23:38:16.483Z,103006.88
2023-01-23T23:40:43.094Z,103002.13
2023-01-23T23:43:09.954Z,103003.47
2023-01-23T23:45:36.591Z,102996.84
2023-01-23T23:48:03.249Z,102997.19
2023-01-23T23:50:30.097Z,103003.44
2023-01-23T23:52:57.069Z,102992.59
2023-01-23T23:55:23.765Z,102995.13
2023-01-23T23:57:50.343Z,102998.56
